sensor_id;sensor_type;location;lat;lon;timestamp;P1;durP1;ratioP1;P2;durP2;ratioP2
68507;SDS011;55510;49.560;19.090;2023-04-15T13:06:04;7.72;;;2.60;;
68507;SDS011;55510;49.560;19.090;2023-04-15T13:09:06;4.57;;;2.38;;
68507;SDS011;55510;49.560;19.090;2023-04-15T13:12:06;4.30;;;2.10;;
68507;SDS011;55510;49.560;19.090;2023-04-15T13:15:07;4.07;;;1.38;;
68507;SDS011;55510;49.560;19.090;2023-04-15T13:18:10;13.57;;;3.93;;
68507;SDS011;55510;49.560;19.090;2023-04-15T13:21:11;4.80;;;2.40;;
68507;SDS011;55510;49.560;19.090;2023-04-15T13:24:12;6.25;;;3.10;;
68507;SDS011;55510;49.560;19.090;2023-04-15T13:27:13;3.35;;;1.25;;
68507;SDS011;55510;49.560;19.090;2023-04-15T13:30:13;4.53;;;1.77;;
68507;SDS011;55510;49.560;19.090;2023-04-15T13:33:15;3.50;;;1.60;;
68507;SDS011;55510;49.560;19.090;2023-04-15T13:36:17;8.33;;;3.13;;
68507;SDS011;55510;49.560;19.090;2023-04-15T13:39:18;7.80;;;3.63;;
68507;SDS011;55510;49.560;19.090;2023-04-15T13:42:18;16.33;;;7.07;;
68507;SDS011;55510;49.560;19.090;2023-04-15T13:45:19;24.10;;;9.00;;
68507;SDS011;55510;49.560;19.090;2023-04-15T13:48:19;17.17;;;7.23;;
68507;SDS011;55510;49.560;19.090;2023-04-15T13:51:20;11.45;;;4.32;;
68507;SDS011;55510;49.560;19.090;2023-04-15T13:54:21;9.03;;;3.90;;
68507;SDS011;55510;49.560;19.090;2023-04-15T13:57:22;10.02;;;3.40;;
68507;SDS011;55510;49.560;19.090;2023-04-15T14:00:22;15.97;;;5.47;;
68507;SDS011;55510;49.560;19.090;2023-04-15T14:03:23;7.75;;;3.72;;
68507;SDS011;55510;49.560;19.090;2023-04-15T14:06:24;19.90;;;6.70;;
68507;SDS011;55510;49.560;19.090;2023-04-15T14:09:26;6.68;;;2.58;;
68507;SDS011;55510;49.560;19.090;2023-04-15T14:12:27;6.90;;;2.30;;
68507;SDS011;55510;49.560;19.090;2023-04-15T14:15:27;4.10;;;1.30;;
68507;SDS011;55510;49.560;19.090;2023-04-15T14:18:28;2.50;;;0.97;;
68507;SDS011;55510;49.560;19.090;2023-04-15T14:21:30;3.42;;;1.13;;
68507;SDS011;55510;49.560;19.090;2023-04-15T14:24:31;6.72;;;2.20;;
68507;SDS011;55510;49.560;19.090;2023-04-15T14:27:32;5.57;;;1.70;;
68507;SDS011;55510;49.560;19.090;2023-04-15T14:30:33;7.43;;;2.53;;
68507;SDS011;55510;49.560;19.090;2023-04-15T14:33:33;14.27;;;5.30;;
68507;SDS011;55510;49.560;19.090;2023-04-15T14:36:34;11.18;;;3.85;;
68507;SDS011;55510;49.560;19.090;2023-04-15T14:39:35;9.33;;;3.90;;
68507;SDS011;55510;49.560;19.090;2023-04-15T14:42:35;7.33;;;2.73;;
68507;SDS011;55510;49.560;19.090;2023-04-15T14:45:36;6.57;;;2.42;;
68507;SDS011;55510;49.560;19.090;2023-04-15T14:48:37;5.45;;;1.90;;
68507;SDS011;55510;49.560;19.090;2023-04-15T14:51:38;7.67;;;2.30;;
68507;SDS011;55510;49.560;19.090;2023-04-15T14:54:39;4.28;;;1.58;;
68507;SDS011;55510;49.560;19.090;2023-04-15T14:57:40;5.07;;;2.20;;
68507;SDS011;55510;49.560;19.090;2023-04-15T15:00:42;10.75;;;4.07;;
68507;SDS011;55510;49.560;19.090;2023-04-15T15:03:43;7.82;;;3.30;;
68507;SDS011;55510;49.560;19.090;2023-04-15T15:06:44;4.27;;;2.30;;
68507;SDS011;55510;49.560;19.090;2023-04-15T15:09:45;4.85;;;2.60;;
68507;SDS011;55510;49.560;19.090;2023-04-15T15:12:46;2.50;;;1.30;;
68507;SDS011;55510;49.560;19.090;2023-04-15T15:15:46;3.35;;;1.67;;
68507;SDS011;55510;49.560;19.090;2023-04-15T15:18:48;4.57;;;1.80;;
68507;SDS011;55510;49.560;19.090;2023-04-15T15:21:50;3.47;;;2.20;;
68507;SDS011;55510;49.560;19.090;2023-04-15T15:24:51;3.33;;;2.10;;
68507;SDS011;55510;49.560;19.090;2023-04-15T15:27:52;4.20;;;3.08;;
68507;SDS011;55510;49.560;19.090;2023-04-15T15:30:53;5.53;;;3.70;;
68507;SDS011;55510;49.560;19.090;2023-04-15T15:33:54;3.95;;;2.13;;
68507;SDS011;55510;49.560;19.090;2023-04-15T15:36:54;17.90;;;8.40;;
68507;SDS011;55510;49.560;19.090;2023-04-15T15:39:56;13.13;;;5.32;;
68507;SDS011;55510;49.560;19.090;2023-04-15T15:42:57;4.93;;;1.63;;
68507;SDS011;55510;49.560;19.090;2023-04-15T15:45:58;6.25;;;1.45;;
68507;SDS011;55510;49.560;19.090;2023-04-15T15:48:58;7.40;;;2.77;;
68507;SDS011;55510;49.560;19.090;2023-04-15T15:52:02;5.28;;;2.22;;
68507;SDS011;55510;49.560;19.090;2023-04-15T15:55:03;6.70;;;2.43;;
68507;SDS011;55510;49.560;19.090;2023-04-15T15:58:04;6.70;;;1.80;;
68507;SDS011;55510;49.560;19.090;2023-04-15T16:01:04;23.08;;;5.15;;
68507;SDS011;55510;49.560;19.090;2023-04-15T16:04:05;16.93;;;7.80;;
68507;SDS011;55510;49.560;19.090;2023-04-15T16:07:06;21.10;;;8.27;;
68507;SDS011;55510;49.560;19.090;2023-04-15T16:10:07;26.07;;;10.57;;
68507;SDS011;55510;49.560;19.090;2023-04-15T16:13:08;32.75;;;7.85;;
68507;SDS011;55510;49.560;19.090;2023-04-15T16:16:10;32.88;;;10.50;;
68507;SDS011;55510;49.560;19.090;2023-04-15T16:19:10;36.90;;;16.07;;
68507;SDS011;55510;49.560;19.090;2023-04-15T16:22:11;32.13;;;17.33;;
68507;SDS011;55510;49.560;19.090;2023-04-15T16:25:12;31.70;;;17.77;;
68507;SDS011;55510;49.560;19.090;2023-04-15T16:28:13;20.70;;;11.63;;
68507;SDS011;55510;49.560;19.090;2023-04-15T16:31:13;25.15;;;13.40;;
68507;SDS011;55510;49.560;19.090;2023-04-15T16:34:14;15.27;;;8.70;;
68507;SDS011;55510;49.560;19.090;2023-04-15T16:37:15;18.55;;;9.07;;
68507;SDS011;55510;49.560;19.090;2023-04-15T16:40:16;27.60;;;18.20;;
68507;SDS011;55510;49.560;19.090;2023-04-15T16:43:16;25.13;;;14.35;;
68507;SDS011;55510;49.560;19.090;2023-04-15T16:46:17;27.67;;;14.93;;
68507;SDS011;55510;49.560;19.090;2023-04-15T16:49:18;28.27;;;14.47;;
68507;SDS011;55510;49.560;19.090;2023-04-15T16:52:19;27.83;;;13.05;;
68507;SDS011;55510;49.560;19.090;2023-04-15T16:55:19;26.70;;;14.13;;
68507;SDS011;55510;49.560;19.090;2023-04-15T16:58:20;30.88;;;14.90;;
68507;SDS011;55510;49.560;19.090;2023-04-15T17:01:21;40.23;;;16.33;;
68507;SDS011;55510;49.560;19.090;2023-04-15T17:04:22;39.47;;;15.75;;
68507;SDS011;55510;49.560;19.090;2023-04-15T17:07:22;36.70;;;16.87;;
68507;SDS011;55510;49.560;19.090;2023-04-15T17:10:23;60.85;;;26.55;;
68507;SDS011;55510;49.560;19.090;2023-04-15T17:13:24;47.80;;;20.03;;
68507;SDS011;55510;49.560;19.090;2023-04-15T17:16:26;34.17;;;14.48;;
68507;SDS011;55510;49.560;19.090;2023-04-15T17:19:27;27.73;;;12.00;;
68507;SDS011;55510;49.560;19.090;2023-04-15T17:22:28;25.67;;;12.68;;
68507;SDS011;55510;49.560;19.090;2023-04-15T17:25:29;21.17;;;11.50;;
68507;SDS011;55510;49.560;19.090;2023-04-15T17:28:30;22.63;;;10.93;;
68507;SDS011;55510;49.560;19.090;2023-04-15T17:31:30;26.30;;;14.35;;
68507;SDS011;55510;49.560;19.090;2023-04-15T17:34:31;28.60;;;14.93;;
68507;SDS011;55510;49.560;19.090;2023-04-15T17:37:33;93.38;;;38.17;;
68507;SDS011;55510;49.560;19.090;2023-04-15T17:40:36;82.32;;;27.80;;
68507;SDS011;55510;49.560;19.090;2023-04-15T17:43:36;49.67;;;18.87;;
68507;SDS011;55510;49.560;19.090;2023-04-15T17:46:37;46.93;;;17.00;;
68507;SDS011;55510;49.560;19.090;2023-04-15T17:49:38;39.40;;;15.30;;
68507;SDS011;55510;49.560;19.090;2023-04-15T17:52:39;38.20;;;17.13;;
68507;SDS011;55510;49.560;19.090;2023-04-15T17:55:39;35.03;;;15.98;;
68507;SDS011;55510;49.560;19.090;2023-04-15T17:58:41;30.90;;;15.13;;
68507;SDS011;55510;49.560;19.090;2023-04-15T18:01:42;49.23;;;21.37;;
68507;SDS011;55510;49.560;19.090;2023-04-15T18:04:44;56.08;;;21.95;;
68507;SDS011;55510;49.560;19.090;2023-04-15T18:07:45;50.58;;;21.35;;
68507;SDS011;55510;49.560;19.090;2023-04-15T18:10:46;46.00;;;19.60;;
68507;SDS011;55510;49.560;19.090;2023-04-15T18:13:47;37.08;;;15.88;;
68507;SDS011;55510;49.560;19.090;2023-04-15T18:16:48;32.13;;;14.52;;
68507;SDS011;55510;49.560;19.090;2023-04-15T18:19:50;29.80;;;14.00;;
68507;SDS011;55510;49.560;19.090;2023-04-15T18:22:51;27.67;;;13.88;;
68507;SDS011;55510;49.560;19.090;2023-04-15T18:25:52;52.42;;;22.27;;
68507;SDS011;55510;49.560;19.090;2023-04-15T18:28:55;82.70;;;34.30;;
68507;SDS011;55510;49.560;19.090;2023-04-15T18:31:56;56.60;;;23.63;;
68507;SDS011;55510;49.560;19.090;2023-04-15T18:34:59;45.20;;;18.00;;
68507;SDS011;55510;49.560;19.090;2023-04-15T18:38:00;40.53;;;15.25;;
68507;SDS011;55510;49.560;19.090;2023-04-15T18:41:02;85.70;;;32.10;;
68507;SDS011;55510;49.560;19.090;2023-04-15T18:44:04;146.20;;;52.08;;
68507;SDS011;55510;49.560;19.090;2023-04-15T18:47:05;90.15;;;34.25;;
68507;SDS011;55510;49.560;19.090;2023-04-15T18:50:06;51.93;;;22.60;;
68507;SDS011;55510;49.560;19.090;2023-04-15T18:53:08;46.15;;;18.13;;
68507;SDS011;55510;49.560;19.090;2023-04-15T18:56:08;37.65;;;15.65;;
68507;SDS011;55510;49.560;19.090;2023-04-15T18:59:10;37.57;;;14.73;;
68507;SDS011;55510;49.560;19.090;2023-04-15T19:02:11;37.00;;;14.80;;
68507;SDS011;55510;49.560;19.090;2023-04-15T19:05:13;32.70;;;14.15;;
68507;SDS011;55510;49.560;19.090;2023-04-15T19:08:13;29.10;;;13.20;;
68507;SDS011;55510;49.560;19.090;2023-04-15T19:11:14;54.78;;;24.17;;
68507;SDS011;55510;49.560;19.090;2023-04-15T19:14:15;69.70;;;29.60;;
68507;SDS011;55510;49.560;19.090;2023-04-15T19:17:17;59.95;;;27.20;;
68507;SDS011;55510;49.560;19.090;2023-04-15T19:20:17;69.30;;;31.77;;
68507;SDS011;55510;49.560;19.090;2023-04-15T19:23:18;62.70;;;28.33;;
68507;SDS011;55510;49.560;19.090;2023-04-15T19:26:19;58.63;;;26.40;;
68507;SDS011;55510;49.560;19.090;2023-04-15T19:29:20;58.47;;;24.15;;
68507;SDS011;55510;49.560;19.090;2023-04-15T19:32:22;63.85;;;28.95;;
68507;SDS011;55510;49.560;19.090;2023-04-15T19:35:23;55.33;;;24.40;;
68507;SDS011;55510;49.560;19.090;2023-04-15T19:38:23;54.77;;;24.87;;
68507;SDS011;55510;49.560;19.090;2023-04-15T19:41:24;58.55;;;26.73;;
68507;SDS011;55510;49.560;19.090;2023-04-15T19:44:25;58.47;;;26.50;;
68507;SDS011;55510;49.560;19.090;2023-04-15T19:47:26;59.20;;;26.13;;
68507;SDS011;55510;49.560;19.090;2023-04-15T19:50:27;52.55;;;23.42;;
68507;SDS011;55510;49.560;19.090;2023-04-15T19:53:28;59.70;;;26.27;;
68507;SDS011;55510;49.560;19.090;2023-04-15T19:56:28;51.97;;;22.93;;
68507;SDS011;55510;49.560;19.090;2023-04-15T19:59:29;58.75;;;23.70;;
68507;SDS011;55510;49.560;19.090;2023-04-15T20:02:30;83.37;;;34.50;;
68507;SDS011;55510;49.560;19.090;2023-04-15T20:05:31;82.93;;;33.22;;
68507;SDS011;55510;49.560;19.090;2023-04-15T20:08:31;66.73;;;27.43;;
68507;SDS011;55510;49.560;19.090;2023-04-15T20:11:32;67.03;;;27.35;;
68507;SDS011;55510;49.560;19.090;2023-04-15T20:14:36;66.50;;;27.23;;
68507;SDS011;55510;49.560;19.090;2023-04-15T20:17:37;68.55;;;28.45;;
68507;SDS011;55510;49.560;19.090;2023-04-15T20:20:38;64.20;;;27.27;;
68507;SDS011;55510;49.560;19.090;2023-04-15T20:23:39;61.77;;;26.70;;
68507;SDS011;55510;49.560;19.090;2023-04-15T20:26:40;60.93;;;24.90;;
68507;SDS011;55510;49.560;19.090;2023-04-15T20:29:41;65.55;;;26.27;;
68507;SDS011;55510;49.560;19.090;2023-04-15T20:32:41;58.20;;;24.77;;
68507;SDS011;55510;49.560;19.090;2023-04-15T20:35:42;65.97;;;27.10;;
68507;SDS011;55510;49.560;19.090;2023-04-15T20:38:42;63.60;;;27.83;;
68507;SDS011;55510;49.560;19.090;2023-04-15T20:41:43;60.00;;;23.95;;
68507;SDS011;55510;49.560;19.090;2023-04-15T20:44:44;67.57;;;25.40;;
68507;SDS011;55510;49.560;19.090;2023-04-15T20:47:45;60.13;;;23.48;;
68507;SDS011;55510;49.560;19.090;2023-04-15T20:50:45;49.00;;;20.27;;
68507;SDS011;55510;49.560;19.090;2023-04-15T20:53:46;43.33;;;17.93;;
68507;SDS011;55510;49.560;19.090;2023-04-15T20:56:47;47.40;;;18.30;;
68507;SDS011;55510;49.560;19.090;2023-04-15T20:59:47;40.93;;;17.80;;
68507;SDS011;55510;49.560;19.090;2023-04-15T21:02:48;39.42;;;14.40;;
68507;SDS011;55510;49.560;19.090;2023-04-15T21:05:49;32.70;;;13.83;;
68507;SDS011;55510;49.560;19.090;2023-04-15T21:08:49;41.88;;;17.73;;
68507;SDS011;55510;49.560;19.090;2023-04-15T21:11:51;45.33;;;19.70;;
68507;SDS011;55510;49.560;19.090;2023-04-15T21:14:52;42.15;;;19.42;;
68507;SDS011;55510;49.560;19.090;2023-04-15T21:17:53;39.97;;;15.53;;
